CHH7374 ZSOF-ZJSY
Flight info
| Callsign | CHH7374 |
|---|---|
| Flight time | N/A |
| Altitude | 32100 |
| Route | IKU01D IKUBA W50 XSH W80 UDUMI W37 OLMIB W83 GOSMA R343 OLTUS/K0880S1040 R343 LBN/K0883S1010 W159 BHY W70 NYB/K0882S1040 G221 WL |
| Aircraft | B738/M-SDE2E3FGHIRWXY/LB1 |
Departure
| Time | N/A |
|---|---|
| Airport | Hefei Xinqiao International Airport (ZSOF) |
Arrival
| Time | 2026-04-28 10:20 |
|---|---|
| Airport | Sanya Phoenix International Airport (ZJSY) |
| Time | Latitude | Longitude | Altitude | Speed | Heading |
|---|---|---|---|---|---|
| 2026-04-28 09:13 | 24.88262 | 109.97233 | 33899 ft | 440 kts | 214° |
| 2026-04-28 09:13 | 24.83179 | 109.93469 | 33815 ft | 440 kts | 215° |
| 2026-04-28 09:13 | 24.80655 | 109.91591 | 33922 ft | 437 kts | 215° |
| 2026-04-28 09:14 | 24.78129 | 109.89715 | 33903 ft | 439 kts | 215° |
| 2026-04-28 09:14 | 24.73052 | 109.85955 | 33883 ft | 441 kts | 215° |
| 2026-04-28 09:15 | 24.67963 | 109.82188 | 33896 ft | 441 kts | 215° |
| 2026-04-28 09:15 | 24.62878 | 109.78410 | 33894 ft | 441 kts | 215° |
| 2026-04-28 09:16 | 24.57789 | 109.74623 | 33884 ft | 440 kts | 215° |
| 2026-04-28 09:16 | 24.52774 | 109.70894 | 33875 ft | 437 kts | 215° |
| 2026-04-28 09:17 | 24.47730 | 109.67208 | 33886 ft | 434 kts | 214° |
| 2026-04-28 09:17 | 24.42749 | 109.63466 | 33869 ft | 432 kts | 216° |
| 2026-04-28 09:18 | 24.37785 | 109.59765 | 33872 ft | 430 kts | 215° |
| 2026-04-28 09:18 | 24.32799 | 109.56089 | 33861 ft | 435 kts | 215° |
| 2026-04-28 09:19 | 24.27732 | 109.52358 | 33871 ft | 439 kts | 215° |
| 2026-04-28 09:19 | 24.22642 | 109.48622 | 33863 ft | 441 kts | 215° |
| 2026-04-28 09:20 | 24.17570 | 109.44884 | 33887 ft | 443 kts | 215° |
| 2026-04-28 09:20 | 24.12447 | 109.41114 | 33876 ft | 444 kts | 215° |
| 2026-04-28 09:21 | 24.07315 | 109.37345 | 33864 ft | 444 kts | 215° |
| 2026-04-28 09:21 | 24.02168 | 109.33570 | 33882 ft | 444 kts | 215° |
| 2026-04-28 09:22 | 23.97030 | 109.29804 | 33877 ft | 443 kts | 215° |
| 2026-04-28 09:22 | 23.91946 | 109.26081 | 33870 ft | 442 kts | 215° |
| 2026-04-28 09:23 | 23.86835 | 109.22340 | 33876 ft | 442 kts | 215° |
| 2026-04-28 09:23 | 23.81724 | 109.18605 | 33877 ft | 441 kts | 215° |
| 2026-04-28 09:24 | 23.76181 | 109.15770 | 33886 ft | 446 kts | 196° |
| 2026-04-28 09:24 | 23.69963 | 109.15356 | 33878 ft | 455 kts | 177° |
| 2026-04-28 09:25 | 23.63676 | 109.16235 | 33873 ft | 456 kts | 176° |
| 2026-04-28 09:25 | 23.57392 | 109.17144 | 33868 ft | 455 kts | 176° |
| 2026-04-28 09:26 | 23.51143 | 109.18000 | 33885 ft | 455 kts | 177° |
| 2026-04-28 09:26 | 23.44853 | 109.18832 | 33867 ft | 455 kts | 178° |
| 2026-04-28 09:27 | 23.35404 | 109.20075 | 33865 ft | 457 kts | 178° |
| 2026-04-28 09:27 | 23.29078 | 109.20906 | 33880 ft | 457 kts | 178° |
| 2026-04-28 09:28 | 23.22744 | 109.21739 | 33883 ft | 458 kts | 178° |
| 2026-04-28 09:28 | 23.16411 | 109.22572 | 33867 ft | 458 kts | 178° |
| 2026-04-28 09:29 | 23.10111 | 109.23399 | 33880 ft | 459 kts | 178° |
| 2026-04-28 09:29 | 23.03762 | 109.24231 | 33878 ft | 460 kts | 178° |
| 2026-04-28 09:30 | 22.97394 | 109.25065 | 33880 ft | 461 kts | 178° |
| 2026-04-28 09:30 | 22.91011 | 109.25901 | 33883 ft | 461 kts | 178° |
| 2026-04-28 09:31 | 22.84671 | 109.26730 | 33873 ft | 461 kts | 178° |
| 2026-04-28 09:31 | 22.78299 | 109.27563 | 33883 ft | 461 kts | 178° |
| 2026-04-28 09:32 | 22.71929 | 109.28394 | 33886 ft | 460 kts | 178° |
| 2026-04-28 09:32 | 22.65576 | 109.29229 | 33890 ft | 460 kts | 178° |
| 2026-04-28 09:33 | 22.59221 | 109.30069 | 33896 ft | 459 kts | 178° |
| 2026-04-28 09:33 | 22.52875 | 109.30906 | 33885 ft | 459 kts | 178° |
| 2026-04-28 09:34 | 22.46524 | 109.31742 | 33889 ft | 459 kts | 178° |
| 2026-04-28 09:34 | 22.40179 | 109.32577 | 33895 ft | 459 kts | 178° |
| 2026-04-28 09:35 | 22.33829 | 109.33412 | 33900 ft | 459 kts | 178° |
| 2026-04-28 09:35 | 22.27485 | 109.34245 | 33895 ft | 459 kts | 178° |
| 2026-04-28 09:36 | 22.21180 | 109.35066 | 33887 ft | 459 kts | 178° |
| 2026-04-28 09:36 | 22.14832 | 109.35891 | 33895 ft | 459 kts | 178° |
| 2026-04-28 09:37 | 22.08485 | 109.36715 | 33907 ft | 459 kts | 178° |
| 2026-04-28 09:37 | 22.02126 | 109.37541 | 33903 ft | 460 kts | 178° |
| 2026-04-28 09:38 | 21.95767 | 109.38366 | 33902 ft | 461 kts | 178° |
| 2026-04-28 09:38 | 21.89397 | 109.39192 | 33892 ft | 461 kts | 178° |
| 2026-04-28 09:39 | 21.83020 | 109.40018 | 33905 ft | 461 kts | 178° |
| 2026-04-28 09:39 | 21.76666 | 109.40840 | 33905 ft | 462 kts | 178° |
| 2026-04-28 09:40 | 21.70268 | 109.41668 | 33907 ft | 462 kts | 178° |
| 2026-04-28 09:40 | 21.63863 | 109.42495 | 33904 ft | 463 kts | 178° |
| 2026-04-28 09:41 | 21.57552 | 109.44034 | 33905 ft | 472 kts | 163° |
| 2026-04-28 09:41 | 21.51691 | 109.47347 | 33902 ft | 478 kts | 153° |
| 2026-04-28 09:42 | 21.46023 | 109.50968 | 33901 ft | 477 kts | 154° |
| 2026-04-28 09:42 | 21.40280 | 109.54548 | 33906 ft | 477 kts | 154° |
| 2026-04-28 09:43 | 21.34690 | 109.57987 | 33907 ft | 475 kts | 156° |
| 2026-04-28 09:43 | 21.28577 | 109.60407 | 33908 ft | 464 kts | 174° |
| 2026-04-28 09:44 | 21.22216 | 109.61331 | 33904 ft | 461 kts | 177° |
| 2026-04-28 09:44 | 21.15843 | 109.62183 | 33908 ft | 461 kts | 177° |
| 2026-04-28 09:45 | 21.09524 | 109.63071 | 33904 ft | 461 kts | 176° |
| 2026-04-28 09:45 | 21.03163 | 109.63990 | 33905 ft | 460 kts | 176° |
| 2026-04-28 09:46 | 20.96813 | 109.64912 | 33905 ft | 460 kts | 176° |
| 2026-04-28 09:46 | 20.90456 | 109.65832 | 33905 ft | 461 kts | 176° |
| 2026-04-28 09:47 | 20.85179 | 109.66595 | 33907 ft | 461 kts | 176° |
| 2026-04-28 09:47 | 20.78826 | 109.67513 | 33908 ft | 461 kts | 176° |
| 2026-04-28 09:48 | 20.72463 | 109.68431 | 33910 ft | 461 kts | 176° |
| 2026-04-28 09:48 | 20.66112 | 109.69346 | 33908 ft | 461 kts | 176° |
| 2026-04-28 09:49 | 20.59745 | 109.70264 | 33904 ft | 461 kts | 176° |
| 2026-04-28 09:49 | 20.53396 | 109.71281 | 33899 ft | 465 kts | 170° |
| 2026-04-28 09:50 | 20.47382 | 109.73987 | 33905 ft | 476 kts | 153° |
| 2026-04-28 09:50 | 20.42103 | 109.78336 | 33906 ft | 482 kts | 144° |
| 2026-04-28 09:51 | 20.36955 | 109.82933 | 33902 ft | 482 kts | 144° |
| 2026-04-28 09:51 | 20.31778 | 109.87484 | 33900 ft | 482 kts | 145° |
| 2026-04-28 09:52 | 20.26604 | 109.91972 | 33904 ft | 482 kts | 145° |
| 2026-04-28 09:52 | 20.21384 | 109.96485 | 33904 ft | 483 kts | 145° |
| 2026-04-28 09:53 | 20.16162 | 110.01001 | 33903 ft | 483 kts | 145° |
| 2026-04-28 09:53 | 20.10944 | 110.05513 | 33901 ft | 483 kts | 145° |
| 2026-04-28 09:54 | 20.05658 | 110.09908 | 33878 ft | 477 kts | 155° |
| 2026-04-28 09:54 | 20.02617 | 110.11166 | 33914 ft | 463 kts | 173° |
| 2026-04-28 09:54 | 19.99445 | 110.11486 | 33917 ft | 455 kts | 186° |
| 2026-04-28 09:55 | 19.96337 | 110.11080 | 33894 ft | 448 kts | 199° |
| 2026-04-28 09:55 | 19.93435 | 110.09944 | 33906 ft | 443 kts | 207° |
| 2026-04-28 09:55 | 19.87832 | 110.07183 | 33902 ft | 444 kts | 208° |
| 2026-04-28 09:56 | 19.82237 | 110.04391 | 33897 ft | 445 kts | 208° |
| 2026-04-28 09:56 | 19.76640 | 110.01660 | 33910 ft | 445 kts | 207° |
| 2026-04-28 09:57 | 19.70988 | 109.98934 | 33640 ft | 450 kts | 207° |
| 2026-04-28 09:57 | 19.68114 | 109.97550 | 33008 ft | 452 kts | 207° |
| 2026-04-28 09:57 | 19.65254 | 109.96175 | 32275 ft | 451 kts | 208° |
| 2026-04-28 09:58 | 19.62398 | 109.94803 | 31551 ft | 452 kts | 208° |
| 2026-04-28 09:58 | 19.59524 | 109.93421 | 30799 ft | 453 kts | 208° |
| 2026-04-28 09:58 | 19.56640 | 109.92033 | 29994 ft | 456 kts | 208° |
| 2026-04-28 09:58 | 19.53735 | 109.90636 | 29040 ft | 460 kts | 208° |
| 2026-04-28 09:59 | 19.50821 | 109.89236 | 28125 ft | 461 kts | 208° |
| 2026-04-28 09:59 | 19.47894 | 109.87830 | 27195 ft | 463 kts | 208° |
| 2026-04-28 09:59 | 19.44959 | 109.86421 | 26433 ft | 460 kts | 208° |
| 2026-04-28 09:59 | 19.42049 | 109.85025 | 25740 ft | 460 kts | 208° |
| 2026-04-28 10:00 | 19.39124 | 109.83622 | 25060 ft | 462 kts | 207° |
| 2026-04-28 10:00 | 19.36208 | 109.82227 | 24374 ft | 459 kts | 207° |
| 2026-04-28 10:00 | 19.33305 | 109.80850 | 23667 ft | 456 kts | 207° |
| 2026-04-28 10:00 | 19.30403 | 109.79477 | 22870 ft | 455 kts | 207° |
| 2026-04-28 10:01 | 19.27577 | 109.78142 | 22284 ft | 443 kts | 207° |
| 2026-04-28 10:01 | 19.24791 | 109.76823 | 21469 ft | 435 kts | 207° |
| 2026-04-28 10:01 | 19.22049 | 109.75515 | 20592 ft | 430 kts | 207° |
| 2026-04-28 10:01 | 19.19332 | 109.74209 | 19861 ft | 426 kts | 207° |
| 2026-04-28 10:02 | 19.16640 | 109.72914 | 19203 ft | 423 kts | 207° |
| 2026-04-28 10:02 | 19.13975 | 109.71626 | 18590 ft | 420 kts | 208° |
| 2026-04-28 10:02 | 19.11331 | 109.70313 | 17918 ft | 418 kts | 207° |
| 2026-04-28 10:02 | 19.08692 | 109.69045 | 17270 ft | 414 kts | 207° |
| 2026-04-28 10:03 | 19.06080 | 109.67805 | 16643 ft | 409 kts | 207° |
| 2026-04-28 10:03 | 19.03531 | 109.66596 | 16026 ft | 404 kts | 206° |
| 2026-04-28 10:03 | 19.00977 | 109.65380 | 15442 ft | 400 kts | 207° |
| 2026-04-28 10:03 | 18.98451 | 109.64175 | 14866 ft | 396 kts | 207° |
| 2026-04-28 10:04 | 18.95952 | 109.62980 | 14277 ft | 394 kts | 207° |
| 2026-04-28 10:04 | 18.93459 | 109.61786 | 13687 ft | 392 kts | 207° |
| 2026-04-28 10:04 | 18.90986 | 109.60600 | 13045 ft | 389 kts | 207° |
| 2026-04-28 10:04 | 18.88524 | 109.59421 | 12438 ft | 386 kts | 206° |
| 2026-04-28 10:05 | 18.86088 | 109.58255 | 11863 ft | 383 kts | 206° |
| 2026-04-28 10:05 | 18.83674 | 109.57102 | 11287 ft | 378 kts | 206° |
| 2026-04-28 10:05 | 18.81313 | 109.55977 | 11087 ft | 364 kts | 206° |
| 2026-04-28 10:05 | 18.79046 | 109.54893 | 10944 ft | 352 kts | 207° |
| 2026-04-28 10:06 | 18.76889 | 109.53858 | 10880 ft | 340 kts | 206° |
| 2026-04-28 10:06 | 18.74776 | 109.52845 | 10778 ft | 327 kts | 206° |
| 2026-04-28 10:06 | 18.72741 | 109.51871 | 10650 ft | 317 kts | 206° |
| 2026-04-28 10:06 | 18.70763 | 109.50929 | 10532 ft | 307 kts | 206° |
| 2026-04-28 10:07 | 18.68848 | 109.50014 | 10400 ft | 298 kts | 206° |
| 2026-04-28 10:07 | 18.66982 | 109.49121 | 10282 ft | 289 kts | 206° |
| 2026-04-28 10:07 | 18.65184 | 109.48261 | 10169 ft | 281 kts | 206° |
| 2026-04-28 10:07 | 18.63423 | 109.47420 | 10037 ft | 273 kts | 206° |
| 2026-04-28 10:08 | 18.61688 | 109.46592 | 9750 ft | 273 kts | 206° |
| 2026-04-28 10:08 | 18.59963 | 109.45769 | 9458 ft | 271 kts | 206° |
| 2026-04-28 10:08 | 18.58248 | 109.44951 | 9178 ft | 270 kts | 206° |
| 2026-04-28 10:08 | 18.56632 | 109.43986 | 8869 ft | 266 kts | 224° |
| 2026-04-28 10:09 | 18.55364 | 109.42604 | 8663 ft | 262 kts | 227° |
| 2026-04-28 10:09 | 18.54107 | 109.41238 | 8376 ft | 263 kts | 226° |
| 2026-04-28 10:09 | 18.52828 | 109.39864 | 8091 ft | 261 kts | 226° |
| 2026-04-28 10:09 | 18.51549 | 109.38510 | 7826 ft | 260 kts | 225° |
| 2026-04-28 10:10 | 18.50267 | 109.37163 | 7543 ft | 260 kts | 225° |
| 2026-04-28 10:10 | 18.48987 | 109.35826 | 7367 ft | 255 kts | 226° |
| 2026-04-28 10:10 | 18.47746 | 109.34531 | 7239 ft | 248 kts | 226° |
| 2026-04-28 10:10 | 18.46541 | 109.33271 | 7126 ft | 241 kts | 225° |
| 2026-04-28 10:11 | 18.45371 | 109.32049 | 7027 ft | 233 kts | 226° |
| 2026-04-28 10:11 | 18.44235 | 109.30862 | 6928 ft | 226 kts | 226° |
| 2026-04-28 10:11 | 18.43134 | 109.29710 | 6774 ft | 222 kts | 226° |
| 2026-04-28 10:11 | 18.42044 | 109.28571 | 6567 ft | 217 kts | 226° |
| 2026-04-28 10:12 | 18.40981 | 109.27462 | 6354 ft | 213 kts | 226° |
| 2026-04-28 10:12 | 18.39952 | 109.26387 | 6092 ft | 209 kts | 226° |
| 2026-04-28 10:12 | 18.38922 | 109.25339 | 5851 ft | 203 kts | 225° |
| 2026-04-28 10:12 | 18.37914 | 109.24321 | 5624 ft | 199 kts | 225° |
| 2026-04-28 10:13 | 18.36923 | 109.23318 | 5388 ft | 196 kts | 225° |
| 2026-04-28 10:13 | 18.35944 | 109.22328 | 5168 ft | 196 kts | 224° |
| 2026-04-28 10:13 | 18.34959 | 109.21332 | 4961 ft | 196 kts | 224° |
| 2026-04-28 10:13 | 18.33971 | 109.20333 | 4733 ft | 197 kts | 224° |
| 2026-04-28 10:14 | 18.32983 | 109.19333 | 4509 ft | 197 kts | 224° |
| 2026-04-28 10:14 | 18.31993 | 109.18331 | 4314 ft | 197 kts | 222° |
| 2026-04-28 10:14 | 18.30823 | 109.17624 | 4048 ft | 193 kts | 191° |
| 2026-04-28 10:14 | 18.29522 | 109.17696 | 3952 ft | 193 kts | 165° |
| 2026-04-28 10:15 | 18.28354 | 109.18437 | 3708 ft | 200 kts | 133° |
| 2026-04-28 10:15 | 18.27921 | 109.19781 | 3672 ft | 201 kts | 95° |
| 2026-04-28 10:15 | 18.27923 | 109.21290 | 3401 ft | 206 kts | 93° |
| 2026-04-28 10:15 | 18.27962 | 109.22783 | 3129 ft | 202 kts | 90° |
| 2026-04-28 10:16 | 18.28100 | 109.24233 | 2867 ft | 197 kts | 86° |
| 2026-04-28 10:16 | 18.28276 | 109.25642 | 2617 ft | 192 kts | 86° |
| 2026-04-28 10:16 | 18.28452 | 109.27006 | 2385 ft | 189 kts | 86° |
| 2026-04-28 10:16 | 18.28629 | 109.28373 | 2133 ft | 181 kts | 87° |
| 2026-04-28 10:17 | 18.28792 | 109.29626 | 1921 ft | 170 kts | 87° |
| 2026-04-28 10:17 | 18.28948 | 109.30834 | 1740 ft | 161 kts | 87° |
| 2026-04-28 10:17 | 18.29099 | 109.32011 | 1488 ft | 161 kts | 88° |
| 2026-04-28 10:17 | 18.29246 | 109.33152 | 1281 ft | 154 kts | 86° |
| 2026-04-28 10:18 | 18.29390 | 109.34273 | 1094 ft | 153 kts | 85° |
| 2026-04-28 10:18 | 18.29534 | 109.35384 | 893 ft | 152 kts | 86° |
| 2026-04-28 10:18 | 18.29666 | 109.36476 | 721 ft | 152 kts | 85° |
| 2026-04-28 10:18 | 18.29829 | 109.37598 | 510 ft | 153 kts | 83° |
| 2026-04-28 10:19 | 18.29959 | 109.38709 | 313 ft | 154 kts | 85° |
| 2026-04-28 10:19 | 18.30099 | 109.39815 | 105 ft | 155 kts | 84° |
| 2026-04-28 10:19 | 18.30242 | 109.40857 | 78 ft | 127 kts | 82° |
| 2026-04-28 10:19 | 18.30342 | 109.41615 | 89 ft | 69 kts | 82° |
| 2026-04-28 10:20 | 18.30380 | 109.41915 | 93 ft | 23 kts | 83° |
| 2026-04-28 10:20 | 18.30418 | 109.42075 | 92 ft | 22 kts | 66° |
| 2026-04-28 10:20 | 18.30499 | 109.42210 | 91 ft | 19 kts | 54° |
| 2026-04-28 10:20 | 18.30582 | 109.42230 | 93 ft | 14 kts | 304° |
| 2026-04-28 10:21 | 18.30580 | 109.42130 | 91 ft | 13 kts | 263° |
| 2026-04-28 10:21 | 18.30569 | 109.42035 | 90 ft | 13 kts | 264° |
| 2026-04-28 10:21 | 18.30558 | 109.41942 | 91 ft | 13 kts | 262° |
| 2026-04-28 10:21 | 18.30545 | 109.41851 | 93 ft | 12 kts | 262° |
| 2026-04-28 10:22 | 18.30533 | 109.41763 | 90 ft | 12 kts | 262° |
| 2026-04-28 10:22 | 18.30523 | 109.41677 | 88 ft | 12 kts | 262° |
| 2026-04-28 10:22 | 18.30510 | 109.41578 | 88 ft | 15 kts | 262° |
| 2026-04-28 10:22 | 18.30494 | 109.41456 | 86 ft | 18 kts | 262° |
| 2026-04-28 10:23 | 18.30482 | 109.41364 | 87 ft | 9 kts | 262° |
| 2026-04-28 10:23 | 18.30492 | 109.41302 | 86 ft | 9 kts | 314° |
| 2026-04-28 10:23 | 18.30550 | 109.41290 | 86 ft | 9 kts | 352° |
| 2026-04-28 10:23 | 18.30608 | 109.41280 | 87 ft | 9 kts | 352° |
| 2026-04-28 10:24 | 18.30685 | 109.41269 | 87 ft | 14 kts | 352° |
| 2026-04-28 10:24 | 18.30759 | 109.41251 | 86 ft | 10 kts | 327° |
| 2026-04-28 10:24 | 18.30779 | 109.41190 | 84 ft | 10 kts | 262° |
| 2026-04-28 10:24 | 18.30770 | 109.41122 | 83 ft | 9 kts | 262° |
| 2026-04-28 10:25 | 18.30762 | 109.41059 | 88 ft | 5 kts | 262° |
| 2026-04-28 10:25 | 18.30767 | 109.41025 | 83 ft | 5 kts | 303° |
| 2026-04-28 10:25 | 18.30800 | 109.41015 | 84 ft | 5 kts | 353° |
| 2026-04-28 10:25 | 18.30834 | 109.41010 | 85 ft | 4 kts | 353° |
| 2026-04-28 10:26 | 18.30849 | 109.41008 | 84 ft | 1 kts | 353° |
| 2026-04-28 10:26 | 18.30855 | 109.41007 | 84 ft | 0 kts | 353° |